Time;durP1;ratioP1;P1;durP2;ratioP2;P2;SDS_P1;SDS_P2;PMS_P1;PMS_P2;Temp;Humidity;BMP_temperature;BMP_pressure;BME280_temperature;BME280_humidity;BME280_pressure;Samples;Min_cycle;Max_cycle;Signal;HPM_P1;HPM_P2
2022/09/12 00:00:05;;;;;;;10.43;9.43;;;;;;;12.88;90.86;95756.31;4993631;28;20272;-79
2022/09/12 00:02:30;;;;;;;9.70;8.65;;;;;;;12.83;91.10;95758.56;4999749;28;20277;-80
2022/09/12 00:04:55;;;;;;;11.40;9.23;;;;;;;12.85;91.05;95754.00;4995369;28;20194;-81
2022/09/12 00:07:21;;;;;;;9.75;8.75;;;;;;;12.83;90.62;95748.16;5027642;28;20568;-81
2022/09/12 00:09:46;;;;;;;11.27;10.07;;;;;;;12.83;90.81;95742.94;4989852;28;20219;-80
2022/09/12 00:12:11;;;;;;;10.50;9.50;;;;;;;12.73;91.22;95748.28;5002395;28;20428;-81
2022/09/12 00:14:37;;;;;;;9.60;8.70;;;;;;;12.75;91.62;95748.94;5004056;28;20191;-79
2022/09/12 00:17:02;;;;;;;9.83;8.83;;;;;;;12.74;91.82;95745.50;5012709;28;20231;-78
2022/09/12 00:19:28;;;;;;;9.87;8.87;;;;;;;12.81;91.14;95744.84;5004032;28;20198;-80
2022/09/12 00:21:54;;;;;;;10.23;9.32;;;;;;;12.77;91.34;95754.78;5001370;28;20198;-81
2022/09/12 00:24:19;;;;;;;9.02;8.23;;;;;;;12.80;91.28;95744.03;5002689;28;20195;-81
2022/09/12 00:26:44;;;;;;;9.27;8.40;;;;;;;12.77;91.38;95744.38;5010883;28;20249;-81
2022/09/12 00:29:14;;;;;;;10.63;9.60;;;;;;;12.79;91.51;95752.84;5000004;28;20974;-80
2022/09/12 00:31:40;;;;;;;10.97;9.53;;;;;;;12.72;91.51;95752.66;5002816;28;20186;-80
2022/09/12 00:34:05;;;;;;;11.85;10.65;;;;;;;12.75;91.71;95746.31;5013918;28;20190;-81
2022/09/12 00:36:30;;;;;;;11.40;10.30;;;;;;;12.80;91.69;95745.84;5028574;28;20179;-81
2022/09/12 00:38:59;;;;;;;12.30;11.00;;;;;;;12.86;91.31;95745.22;4990569;28;20663;-82
2022/09/12 00:41:28;;;;;;;11.23;10.20;;;;;;;12.90;91.75;95741.34;5022015;28;20209;-80
2022/09/12 00:43:59;;;;;;;11.35;10.23;;;;;;;12.84;92.43;95739.34;5000276;28;20205;-81
2022/09/12 00:46:45;;;;;;;12.23;10.23;;;;;;;12.91;91.55;95735.16;5000511;28;20284;-81
2022/09/12 00:49:14;;;;;;;10.67;9.57;;;;;;;12.87;91.84;95732.03;5003564;28;20216;-81
2022/09/12 00:51:43;;;;;;;12.17;10.53;;;;;;;12.80;92.18;95735.41;4991716;28;20193;-81
2022/09/12 00:54:11;;;;;;;10.98;9.98;;;;;;;12.83;91.61;95735.13;4999763;28;20548;-82
2022/09/12 00:56:38;;;;;;;10.73;9.70;;;;;;;12.81;91.46;95734.44;5000065;28;20244;-81
2022/09/12 00:59:12;;;;;;;12.02;9.80;;;;;;;12.82;91.41;95729.09;4982833;28;20179;-81
2022/09/12 01:01:39;;;;;;;11.47;9.53;;;;;;;12.79;91.34;95721.56;4998966;28;20194;-81
2022/09/12 01:04:04;;;;;;;11.02;9.90;;;;;;;12.78;91.35;95719.94;5003293;28;20208;-81
2022/09/12 01:06:39;;;;;;;10.87;9.70;;;;;;;12.71;91.27;95717.13;5007241;28;20186;-81
2022/09/12 01:09:05;;;;;;;10.73;9.63;;;;;;;12.67;91.78;95718.44;5002919;28;20194;-81
2022/09/12 01:11:33;;;;;;;11.20;9.93;;;;;;;12.72;91.49;95710.97;5000404;28;20198;-80
2022/09/12 01:13:58;;;;;;;10.53;9.53;;;;;;;12.70;91.57;95712.91;4997136;28;20183;-82
2022/09/12 01:16:24;;;;;;;11.00;9.70;;;;;;;12.80;91.02;95709.34;4983242;28;20202;-81
2022/09/12 01:19:17;;;;;;;10.17;9.17;;;;;;;12.81;90.93;95700.56;5003572;28;20203;-81
2022/09/12 01:22:04;;;;;;;11.53;9.20;;;;;;;12.73;91.14;95696.97;5006961;28;20202;-81
2022/09/12 01:25:11;;;;;;;10.60;9.43;;;;;;;12.71;91.21;95706.72;5020197;28;20183;-81
2022/09/12 01:27:55;;;;;;;11.17;9.80;;;;;;;12.64;91.41;95686.69;4999791;28;20615;-80
2022/09/12 01:30:45;;;;;;;10.70;9.63;;;;;;;12.67;91.80;95689.78;5033020;28;20199;-81
2022/09/12 01:33:35;;;;;;;10.27;9.33;;;;;;;12.76;90.90;95691.44;5018235;28;20202;-81
2022/09/12 01:36:16;;;;;;;9.97;8.97;;;;;;;12.76;90.81;95685.41;4988314;28;20275;-80
2022/09/12 01:38:43;;;;;;;10.40;9.40;;;;;;;12.68;90.80;95685.38;5018413;28;20754;-81
2022/09/12 01:41:24;;;;;;;9.63;8.73;;;;;;;12.66;91.10;95685.53;4983613;28;20187;-80
2022/09/12 01:43:58;;;;;;;11.87;9.13;;;;;;;12.66;90.83;95682.13;4996564;28;20197;-83
2022/09/12 01:46:30;;;;;;;10.00;9.00;;;;;;;12.64;90.29;95686.69;4978177;28;20185;-80
2022/09/12 01:49:05;;;;;;;12.23;8.40;;;;;;;12.63;90.34;95683.25;4985929;28;20215;-81
2022/09/12 01:51:37;;;;;;;10.10;9.10;;;;;;;12.65;91.10;95683.09;4998341;28;20233;-79
2022/09/12 01:54:09;;;;;;;9.53;8.63;;;;;;;12.71;91.17;95672.84;4996623;28;20834;-82
2022/09/12 01:56:35;;;;;;;9.30;8.45;;;;;;;12.72;90.47;95673.66;4997584;28;20643;-81
2022/09/12 01:59:17;;;;;;;9.50;8.60;;;;;;;12.71;90.58;95672.03;4996887;28;20508;-79
2022/09/12 02:01:51;;;;;;;9.57;8.18;;;;;;;12.70;90.66;95673.00;4997436;28;20804;-81
2022/09/12 02:04:20;;;;;;;8.67;7.77;;;;;;;12.80;90.23;95678.09;4986385;28;20193;-82
2022/09/12 02:06:52;;;;;;;9.90;8.83;;;;;;;12.73;90.22;95675.31;4991116;28;20207;-81
2022/09/12 02:09:21;;;;;;;8.30;7.60;;;;;;;12.69;89.77;95666.97;4981017;28;20208;-80
2022/09/12 02:11:48;;;;;;;8.45;7.57;;;;;;;12.76;89.14;95669.78;4997652;28;20201;-82
2022/09/12 02:14:21;;;;;;;10.53;7.50;;;;;;;12.75;89.06;95657.72;4995938;28;20689;-81
2022/09/12 02:17:01;;;;;;;8.35;7.55;;;;;;;12.69;88.51;95661.75;4992928;28;20231;-80
2022/09/12 02:19:31;;;;;;;8.02;7.25;;;;;;;12.70;88.91;95655.56;4989046;28;20204;-82
2022/09/12 02:21:58;;;;;;;8.35;7.15;;;;;;;12.66;88.55;95656.88;5002430;28;20208;-79
2022/09/12 02:24:28;;;;;;;7.78;7.03;;;;;;;12.61;88.50;95651.31;4994710;28;20196;-80
2022/09/12 02:26:58;;;;;;;7.63;6.82;;;;;;;12.68;87.91;95647.09;4994459;28;20203;-80
2022/09/12 02:29:24;;;;;;;7.17;6.47;;;;;;;12.63;88.04;95644.19;4994716;28;20226;-80
2022/09/12 02:31:59;;;;;;;8.10;7.30;;;;;;;12.64;88.09;95640.59;5001300;28;20624;-81
2022/09/12 02:34:31;;;;;;;7.60;6.93;;;;;;;12.62;88.53;95641.72;4977645;28;20187;-79
2022/09/12 02:37:12;;;;;;;7.60;6.90;;;;;;;12.66;88.90;95641.25;5026185;28;20218;-79
2022/09/12 02:39:37;;;;;;;7.03;6.43;;;;;;;12.66;88.65;95635.22;4997175;28;20702;-81
2022/09/12 02:42:02;;;;;;;7.88;7.18;;;;;;;12.63;89.21;95636.38;4996214;28;20183;-79
2022/09/12 02:44:29;;;;;;;8.37;7.40;;;;;;;12.66;89.28;95645.66;4998518;28;20554;-82
2022/09/12 02:47:01;;;;;;;8.80;7.27;;;;;;;12.70;89.85;95636.53;4996941;28;20202;-79
2022/09/12 02:49:26;;;;;;;8.67;7.83;;;;;;;12.77;89.44;95632.31;5005385;28;20198;-79
2022/09/12 02:51:52;;;;;;;7.93;7.13;;;;;;;12.72;89.56;95638.03;4997896;28;20273;-81
2022/09/12 02:54:18;;;;;;;8.30;7.53;;;;;;;12.79;89.52;95637.38;4995333;28;20182;-82
2022/09/12 02:56:44;;;;;;;8.60;7.53;;;;;;;12.73;90.24;95638.84;4997639;28;20194;-80
2022/09/12 02:59:12;;;;;;;9.10;8.20;;;;;;;12.69;90.14;95638.31;5010994;28;20584;-82
2022/09/12 03:01:57;;;;;;;7.97;7.20;;;;;;;12.72;90.18;95642.38;5007829;28;20277;-82
2022/09/12 03:04:28;;;;;;;9.77;8.37;;;;;;;12.65;90.81;95636.19;5003094;28;20396;-81
2022/09/12 03:07:27;;;;;;;8.97;7.83;;;;;;;12.71;90.66;95636.34;5009185;28;20302;-81
2022/09/12 03:10:07;;;;;;;8.93;7.93;;;;;;;12.76;90.25;95641.94;5005616;28;20199;-81
2022/09/12 03:12:46;;;;;;;9.97;8.17;;;;;;;12.74;90.73;95638.66;4979991;28;20286;-82
2022/09/12 03:15:30;;;;;;;8.57;7.77;;;;;;;12.67;90.71;95640.28;4995808;28;20657;-82
2022/09/12 03:18:06;;;;;;;8.67;7.80;;;;;;;12.64;90.96;95635.38;5003156;28;20210;-79
2022/09/12 03:20:44;;;;;;;8.05;7.25;;;;;;;12.62;91.13;95639.91;5008200;28;20182;-81
2022/09/12 03:23:18;;;;;;;8.18;7.45;;;;;;;12.60;90.92;95644.47;5030809;28;20258;-79
2022/09/12 03:25:48;;;;;;;8.38;7.65;;;;;;;12.59;91.57;95639.44;5008878;28;20191;-81
2022/09/12 03:28:14;;;;;;;8.80;7.90;;;;;;;12.57;91.75;95636.97;5018985;28;20228;-82
2022/09/12 03:30:42;;;;;;;9.23;8.43;;;;;;;12.51;91.81;95635.00;5012392;28;20221;-82
2022/09/12 03:33:16;;;;;;;9.33;8.37;;;;;;;12.52;91.99;95641.84;5013064;28;20573;-81
2022/09/12 03:35:41;;;;;;;9.20;7.53;;;;;;;12.56;92.08;95635.34;4993631;28;20244;-81
2022/09/12 03:38:07;;;;;;;8.20;7.50;;;;;;;12.54;92.16;95632.06;5013190;28;20201;-82
2022/09/12 03:40:33;;;;;;;8.67;7.80;;;;;;;12.57;91.71;95630.97;4998973;28;20254;-82
2022/09/12 03:42:59;;;;;;;8.23;7.43;;;;;;;12.55;92.16;95635.53;4999445;28;20186;-82
2022/09/12 03:45:24;;;;;;;8.60;7.77;;;;;;;12.55;92.24;95636.34;4985824;28;20524;-81
2022/09/12 03:47:49;;;;;;;8.90;7.90;;;;;;;12.47;93.12;95641.50;5023909;28;20571;-82
2022/09/12 03:50:15;;;;;;;8.77;7.97;;;;;;;12.57;92.54;95633.56;4992859;28;20217;-82
2022/09/12 03:52:40;;;;;;;8.43;7.63;;;;;;;12.52;92.48;95636.63;4996348;28;20186;-80
2022/09/12 03:55:06;;;;;;;8.30;7.53;;;;;;;12.48;92.27;95630.13;5010305;28;20201;-80
2022/09/12 03:57:31;;;;;;;8.27;7.47;;;;;;;12.50;92.52;95625.56;4982912;28;20218;-81
2022/09/12 03:59:57;;;;;;;8.50;7.63;;;;;;;12.53;92.47;95629.63;4982074;28;20187;-82
2022/09/12 04:02:22;;;;;;;9.70;8.10;;;;;;;12.46;92.74;95632.06;4984868;28;20194;-85
2022/09/12 04:04:47;;;;;;;8.17;7.37;;;;;;;12.51;92.43;95634.19;4988882;28;20191;-86
2022/09/12 04:07:14;;;;;;;8.30;7.40;;;;;;;12.46;92.78;95634.66;5003068;28;20211;-85
2022/09/12 04:09:39;;;;;;;11.50;6.97;;;;;;;12.42;93.08;95635.94;5013960;28;20215;-85
2022/09/12 04:12:05;;;;;;;8.10;7.30;;;;;;;12.39;93.09;95642.28;5006452;28;20211;-84
2022/09/12 04:14:30;;;;;;;8.57;7.77;;;;;;;12.39;92.94;95633.66;5002503;28;20222;-83
2022/09/12 04:16:55;;;;;;;7.77;7.00;;;;;;;12.34;93.30;95630.69;5002809;28;20206;-82
2022/09/12 04:19:21;;;;;;;7.60;6.90;;;;;;;12.34;93.27;95638.50;4987925;28;20183;-84
2022/09/12 04:21:46;;;;;;;8.47;7.67;;;;;;;12.29;93.36;95635.56;5011419;28;20178;-83
2022/09/12 04:24:11;;;;;;;8.10;7.40;;;;;;;12.28;93.03;95631.31;5008242;28;20554;-83
2022/09/12 04:26:37;;;;;;;9.33;6.93;;;;;;;12.29;93.60;95640.78;4985375;28;20282;-83
2022/09/12 04:29:02;;;;;;;7.90;7.20;;;;;;;12.27;93.49;95634.88;5004390;28;20243;-82
2022/09/12 04:31:28;;;;;;;8.17;7.37;;;;;;;12.26;94.17;95630.66;5024379;28;20529;-85
2022/09/12 04:33:56;;;;;;;9.13;8.23;;;;;;;12.32;93.74;95633.47;4997894;28;20190;-82
2022/09/12 04:36:24;;;;;;;7.53;6.83;;;;;;;12.32;93.58;95630.84;4997468;28;20186;-83
2022/09/12 04:38:50;;;;;;;7.87;7.00;;;;;;;12.33;93.24;95635.09;4981194;28;20250;-83
2022/09/12 04:41:17;;;;;;;6.70;6.10;;;;;;;12.35;93.43;95627.94;4998551;28;20206;-84
2022/09/12 04:43:45;;;;;;;7.37;6.67;;;;;;;12.39;93.39;95621.44;5009202;28;20650;-83
2022/09/12 04:46:13;;;;;;;7.13;6.20;;;;;;;12.41;93.35;95626.50;5005917;28;20275;-84
2022/09/12 04:48:39;;;;;;;7.30;6.60;;;;;;;12.38;93.14;95606.81;4994823;28;20210;-85
2022/09/12 04:51:12;;;;;;;7.13;6.43;;;;;;;12.41;92.99;95608.28;4992566;28;20187;-85
2022/09/12 04:53:38;;;;;;;6.83;6.23;;;;;;;12.44;93.05;95602.72;5000154;28;20183;-85
2022/09/12 04:56:04;;;;;;;6.70;6.10;;;;;;;12.56;92.71;95611.09;4991506;28;20183;-84
2022/09/12 04:58:31;;;;;;;6.53;6.03;;;;;;;12.55;92.42;95614.69;5008998;28;20867;-83
2022/09/12 05:01:06;;;;;;;7.03;6.43;;;;;;;12.65;91.83;95602.34;5006012;28;20785;-83
2022/09/12 05:03:31;;;;;;;7.17;6.57;;;;;;;12.64;92.02;95613.72;4990471;28;20186;-84
2022/09/12 05:05:57;;;;;;;7.80;5.80;;;;;;;12.69;91.53;95616.66;5004166;28;21080;-83
2022/09/12 05:08:22;;;;;;;6.30;5.80;;;;;;;12.71;91.67;95620.72;4990153;28;20212;-83
2022/09/12 05:10:47;;;;;;;6.40;5.67;;;;;;;12.81;91.13;95625.81;5001132;28;20248;-84
2022/09/12 05:13:13;;;;;;;6.67;5.97;;;;;;;12.81;90.86;95619.78;4990314;28;20646;-84
2022/09/12 05:15:38;;;;;;;6.80;6.07;;;;;;;12.77;90.73;95617.50;4989159;28;20198;-81
2022/09/12 05:18:04;;;;;;;6.60;6.00;;;;;;;12.77;90.67;95620.09;4992496;28;20203;-84
2022/09/12 05:20:29;;;;;;;6.05;5.47;;;;;;;12.79;90.52;95621.72;5005255;28;20178;-82
2022/09/12 05:22:55;;;;;;;6.37;5.83;;;;;;;12.80;90.34;95623.34;5033312;28;20185;-82
2022/09/12 05:25:20;;;;;;;7.73;5.87;;;;;;;12.84;90.23;95622.09;5010405;28;20252;-83
2022/09/12 05:27:45;;;;;;;6.05;5.43;;;;;;;12.81;89.82;95620.63;4994267;28;20214;-83
2022/09/12 05:30:11;;;;;;;6.23;5.63;;;;;;;12.85;89.70;95624.53;5008856;28;20210;-83
2022/09/12 05:32:36;;;;;;;7.30;6.60;;;;;;;12.85;89.97;95626.31;4997591;28;20682;-82
2022/09/12 05:35:01;;;;;;;7.27;6.53;;;;;;;12.85;89.94;95632.34;4983245;28;20206;-82
2022/09/12 05:37:27;;;;;;;6.77;6.17;;;;;;;12.94;89.87;95631.38;5000608;28;20257;-82
2022/09/12 05:39:52;;;;;;;8.00;6.60;;;;;;;12.97;89.75;95632.84;5002266;28;20202;-83
2022/09/12 05:42:18;;;;;;;8.13;6.77;;;;;;;13.10;89.91;95635.81;5027888;28;20186;-83
2022/09/12 05:44:43;;;;;;;7.40;6.37;;;;;;;13.19;89.09;95634.88;4988122;28;20191;-83
2022/09/12 05:47:11;;;;;;;7.20;6.50;;;;;;;13.27;88.89;95637.50;4992242;28;20701;-83
2022/09/12 05:49:36;;;;;;;7.03;6.33;;;;;;;13.30;88.62;95636.34;5000466;28;20785;-83
2022/09/12 05:52:03;;;;;;;7.67;6.37;;;;;;;13.40;88.25;95639.59;4985762;28;20223;-84
2022/09/12 05:54:28;;;;;;;6.40;5.80;;;;;;;13.47;87.83;95635.38;5009520;28;20186;-84
2022/09/12 05:56:53;;;;;;;7.10;6.50;;;;;;;13.53;87.64;95641.75;4990482;28;20226;-81
2022/09/12 05:59:20;;;;;;;6.70;6.03;;;;;;;13.58;87.39;95631.63;4987488;28;20188;-82
2022/09/12 06:01:46;;;;;;;6.67;6.07;;;;;;;13.63;87.15;95633.75;4998382;28;20559;-83
2022/09/12 06:04:11;;;;;;;7.00;6.30;;;;;;;13.70;87.24;95638.16;4998340;28;20182;-80
2022/09/12 06:06:40;;;;;;;7.35;6.65;;;;;;;13.78;86.71;95640.75;5003776;28;20601;-82
2022/09/12 06:09:06;;;;;;;7.38;6.68;;;;;;;13.88;85.98;95645.81;5001275;28;20211;-80
2022/09/12 06:11:33;;;;;;;6.77;6.17;;;;;;;13.88;85.58;95644.00;5004756;28;20199;-82
2022/09/12 06:13:59;;;;;;;6.10;5.47;;;;;;;13.99;85.78;95642.03;5006915;28;20179;-82
2022/09/12 06:16:30;;;;;;;6.20;5.60;;;;;;;14.07;84.79;95644.63;5009169;28;20736;-82
2022/09/12 06:18:58;;;;;;;9.70;6.20;;;;;;;14.06;84.89;95640.38;5002156;28;20180;-81
2022/09/12 06:21:25;;;;;;;5.97;5.38;;;;;;;14.14;84.25;95642.97;4994986;28;20191;-82
2022/09/12 06:23:52;;;;;;;6.13;5.53;;;;;;;14.22;83.80;95647.34;5000098;28;20194;-82
2022/09/12 06:26:22;;;;;;;5.78;5.18;;;;;;;14.26;84.04;95635.59;5008754;28;20554;-82
2022/09/12 06:28:47;;;;;;;6.63;5.95;;;;;;;14.25;83.59;95641.81;4987582;28;20234;-81
2022/09/12 06:31:14;;;;;;;6.30;5.80;;;;;;;14.42;83.52;95648.59;4984928;28;20289;-81
2022/09/12 06:33:43;;;;;;;6.05;5.45;;;;;;;14.50;83.29;95642.56;5000536;28;20182;-81
2022/09/12 06:36:14;;;;;;;6.03;5.53;;;;;;;14.54;82.79;95636.81;4984906;28;20240;-82
2022/09/12 06:38:40;;;;;;;5.55;5.05;;;;;;;14.53;82.70;95637.81;4994070;28;20656;-83
2022/09/12 06:41:07;;;;;;;5.93;5.43;;;;;;;14.59;82.42;95634.53;5004294;28;20190;-82
2022/09/12 06:43:33;;;;;;;5.57;4.97;;;;;;;14.67;82.88;95636.28;5009557;28;20201;-81
2022/09/12 06:45:59;;;;;;;5.88;5.28;;;;;;;14.70;82.55;95641.16;4990315;28;20195;-82
2022/09/12 06:48:24;;;;;;;7.28;5.20;;;;;;;14.76;82.47;95644.91;5008850;28;20206;-82
2022/09/12 06:51:08;;;;;;;6.30;5.70;;;;;;;14.74;82.96;95638.03;4996188;28;20195;-83
2022/09/12 06:53:35;;;;;;;6.10;4.93;;;;;;;14.88;82.13;95643.53;4988284;28;20190;-82
2022/09/12 06:56:12;;;;;;;5.57;4.88;;;;;;;14.86;81.86;95638.47;5004381;28;20191;-81
2022/09/12 06:58:38;;;;;;;7.80;5.40;;;;;;;15.03;81.15;95641.81;4995708;28;20191;-82
2022/09/12 07:01:09;;;;;;;5.50;5.00;;;;;;;15.23;79.72;95642.19;4999077;28;20187;-81
2022/09/12 07:03:35;;;;;;;5.50;4.53;;;;;;;15.33;79.43;95636.72;4994831;28;20706;-81
2022/09/12 07:06:05;;;;;;;5.60;5.10;;;;;;;15.35;79.06;95642.59;4998388;28;20187;-82
2022/09/12 07:08:31;;;;;;;5.63;5.18;;;;;;;15.35;78.81;95643.38;4995588;28;20677;-82
2022/09/12 07:10:59;;;;;;;5.85;4.53;;;;;;;15.32;79.27;95635.91;5005454;28;20269;-81
2022/09/12 07:13:25;;;;;;;6.45;4.88;;;;;;;15.38;79.50;95637.84;4977666;28;20198;-81
2022/09/12 07:15:50;;;;;;;4.80;4.40;;;;;;;15.43;78.78;95643.34;4998246;28;20641;-82
2022/09/12 07:18:16;;;;;;;5.50;5.00;;;;;;;15.48;78.52;95635.78;4982313;28;20200;-82
2022/09/12 07:20:41;;;;;;;5.50;5.00;;;;;;;15.50;77.28;95646.88;4989850;28;20228;-81
2022/09/12 07:23:07;;;;;;;6.78;4.40;;;;;;;15.61;77.63;95639.63;5005223;28;20189;-82
2022/09/12 07:25:32;;;;;;;4.60;4.20;;;;;;;15.62;77.23;95639.44;4999257;28;20191;-81
2022/09/12 07:27:58;;;;;;;5.05;4.65;;;;;;;15.71;76.97;95638.38;4995392;28;20203;-82
2022/09/12 07:30:23;;;;;;;5.55;4.70;;;;;;;15.70;76.73;95641.19;4983667;28;20238;-82
2022/09/12 07:32:54;;;;;;;5.47;4.68;;;;;;;15.69;76.64;95639.56;4980643;28;20575;-82
2022/09/12 07:35:20;;;;;;;4.65;4.25;;;;;;;15.82;76.41;95640.59;5007526;28;20554;-82
2022/09/12 07:37:46;;;;;;;6.00;5.28;;;;;;;15.84;76.45;95643.03;5025735;28;20207;-82
2022/09/12 07:40:11;;;;;;;4.60;4.25;;;;;;;15.86;75.87;95639.25;4989831;28;20179;-82
2022/09/12 07:42:36;;;;;;;4.95;4.55;;;;;;;15.89;75.81;95645.13;5008102;28;20673;-83
2022/09/12 07:45:02;;;;;;;4.97;4.40;;;;;;;15.94;75.12;95640.97;4991532;28;20190;-81
2022/09/12 07:47:27;;;;;;;4.47;4.18;;;;;;;16.17;74.69;95643.56;5012719;28;20199;-81
2022/09/12 07:49:52;;;;;;;4.40;4.10;;;;;;;16.12;74.87;95644.06;5001082;28;20226;-81
2022/09/12 07:52:18;;;;;;;4.30;3.90;;;;;;;16.09;73.85;95639.19;4991814;28;20186;-81
2022/09/12 07:54:43;;;;;;;4.35;3.95;;;;;;;16.41;73.66;95647.69;5018863;28;20182;-82
2022/09/12 07:57:08;;;;;;;4.55;4.18;;;;;;;16.54;72.78;95647.88;4999931;28;20207;-82
2022/09/12 07:59:34;;;;;;;4.30;4.00;;;;;;;16.50;72.41;95646.59;5006101;28;20662;-80
2022/09/12 08:01:59;;;;;;;4.47;4.07;;;;;;;16.58;72.50;95643.88;4982821;28;20187;-81
2022/09/12 08:04:24;;;;;;;5.25;4.00;;;;;;;16.65;71.50;95644.78;4987507;28;20186;-82
2022/09/12 08:06:50;;;;;;;3.92;3.45;;;;;;;16.72;70.27;95642.28;5010026;28;20671;-82
2022/09/12 08:09:16;;;;;;;4.13;3.83;;;;;;;16.83;71.40;95639.19;4988444;28;20625;-82
2022/09/12 08:11:41;;;;;;;4.22;3.83;;;;;;;17.00;70.84;95637.16;5003245;28;20232;-83
2022/09/12 08:14:07;;;;;;;3.97;3.67;;;;;;;17.21;69.85;95646.88;4987860;28;20174;-82
2022/09/12 08:16:34;;;;;;;4.47;4.18;;;;;;;17.20;68.44;95648.69;4998551;28;20591;-81
2022/09/12 08:19:01;;;;;;;4.68;4.13;;;;;;;17.38;69.14;95652.69;5009079;28;20193;-82
2022/09/12 08:21:28;;;;;;;3.40;3.20;;;;;;;17.50;70.01;95656.47;4994459;28;20182;-81
2022/09/12 08:23:56;;;;;;;4.20;3.90;;;;;;;17.50;69.22;95656.47;4997722;28;20183;-82
2022/09/12 08:26:22;;;;;;;5.22;3.80;;;;;;;17.60;68.84;95658.78;4995530;28;20228;-82
2022/09/12 08:28:48;;;;;;;3.72;3.42;;;;;;;17.44;68.98;95646.69;4997702;28;20222;-83
2022/09/12 08:31:16;;;;;;;4.07;3.78;;;;;;;17.64;68.88;95649.50;4997416;28;20220;-83
2022/09/12 08:33:41;;;;;;;4.40;4.00;;;;;;;17.71;68.75;95656.47;5008518;28;20179;-82
2022/09/12 08:36:19;;;;;;;3.70;3.40;;;;;;;17.82;67.33;95658.56;5005096;28;20655;-82
2022/09/12 08:38:46;;;;;;;3.63;3.33;;;;;;;17.65;68.94;95643.25;5024763;28;20235;-82
2022/09/12 08:41:37;;;;;;;3.95;3.55;;;;;;;17.59;67.67;95657.97;5010190;28;20198;-83
2022/09/12 08:44:23;;;;;;;4.28;3.88;;;;;;;17.89;66.36;95650.75;4988375;28;20701;-82
2022/09/12 08:47:11;;;;;;;4.00;3.70;;;;;;;17.63;68.41;95647.88;5015526;28;20199;-81
2022/09/12 08:49:38;;;;;;;4.40;3.38;;;;;;;17.78;66.17;95656.53;4970648;28;20221;-80
2022/09/12 08:52:12;;;;;;;3.90;3.50;;;;;;;17.79;65.63;95656.34;5006329;28;20651;-80
2022/09/12 08:54:38;;;;;;;8.38;3.60;;;;;;;18.15;65.17;95652.78;4995753;28;20185;-82
2022/09/12 08:57:04;;;;;;;3.70;3.40;;;;;;;18.14;65.15;95656.41;4987580;28;20233;-82
2022/09/12 08:59:34;;;;;;;3.58;3.28;;;;;;;18.23;64.29;95657.06;4999393;28;20183;-81
2022/09/12 09:02:03;;;;;;;3.83;3.45;;;;;;;18.32;63.39;95664.63;4982121;28;20256;-82
2022/09/12 09:04:37;;;;;;;4.28;3.80;;;;;;;18.56;62.83;95657.28;5001691;28;20185;-83
2022/09/12 09:07:33;;;;;;;4.50;3.55;;;;;;;18.44;62.33;95656.19;4990844;28;20215;-81
2022/09/12 09:10:33;;;;;;;3.60;3.30;;;;;;;18.39;62.31;95660.22;4990466;28;20854;-83
2022/09/12 09:13:12;;;;;;;3.22;2.95;;;;;;;18.83;62.59;95656.44;4932967;29;20202;-80
2022/09/12 09:15:58;;;;;;;4.25;3.70;;;;;;;18.52;62.99;95661.28;4923144;29;20201;-81
2022/09/12 09:18:27;;;;;;;3.72;3.20;;;;;;;18.75;61.31;95650.53;4911338;29;20251;-82
2022/09/12 09:20:59;;;;;;;3.15;2.95;;;;;;;18.54;62.19;95652.19;4923551;29;20191;-81
2022/09/12 09:23:30;;;;;;;3.63;3.20;;;;;;;18.46;62.73;95657.59;4908644;29;20202;-81
2022/09/12 09:26:17;;;;;;;3.40;3.20;;;;;;;18.82;62.91;95656.63;4917766;29;20566;-82
2022/09/12 09:28:51;;;;;;;3.53;2.83;;;;;;;18.99;61.85;95649.19;4918356;29;20217;-82
2022/09/12 09:31:18;;;;;;;3.13;2.85;;;;;;;19.23;61.22;95656.56;4926141;29;20193;-81
2022/09/12 09:46:19;;;;;;;3.40;3.10;;;;;;;19.98;58.74;95665.22;5037739;27;1180265;-81
2022/09/12 09:48:47;;;;;;;3.13;2.92;;;;;;;19.83;58.17;95664.59;5065731;28;20182;-81
2022/09/12 09:51:33;;;;;;;3.55;3.25;;;;;;;19.76;58.38;95667.22;5056989;28;20281;-82
2022/09/12 09:54:22;;;;;;;3.38;3.08;;;;;;;19.94;56.97;95664.78;5054664;28;20224;-82
2022/09/12 09:56:48;;;;;;;3.30;3.00;;;;;;;19.77;55.33;95659.09;5069655;28;20204;-82
2022/09/12 09:59:26;;;;;;;6.00;3.05;;;;;;;19.87;56.14;95663.97;5060980;28;20193;-83
2022/09/12 10:01:53;;;;;;;3.08;2.88;;;;;;;20.16;55.99;95667.22;5061913;28;20188;-82
2022/09/12 10:04:21;;;;;;;3.33;3.08;;;;;;;20.45;55.15;95661.53;5062920;28;20201;-82
2022/09/12 10:06:50;;;;;;;3.15;2.85;;;;;;;20.44;55.55;95657.28;5061628;28;20197;-82
2022/09/12 10:09:18;;;;;;;2.97;2.75;;;;;;;20.53;55.54;95656.03;5060603;28;20193;-82
2022/09/12 10:11:44;;;;;;;2.83;2.63;;;;;;;20.46;53.73;95654.44;5051464;28;20185;-82
2022/09/12 10:14:34;;;;;;;3.10;2.63;;;;;;;20.49;55.89;95652.16;5063250;28;20663;-82
2022/09/12 10:17:02;;;;;;;2.75;2.50;;;;;;;20.75;52.89;95655.75;5067956;28;20241;-82
2022/09/12 10:19:39;;;;;;;3.22;2.85;;;;;;;20.87;52.15;95654.13;5056320;28;20174;-82
2022/09/12 10:22:05;;;;;;;3.20;2.90;;;;;;;20.94;52.13;95649.63;5062927;28;20185;-82
2022/09/12 10:24:36;;;;;;;3.40;3.05;;;;;;;20.86;53.03;95653.31;5050457;28;20264;-82
2022/09/12 10:27:11;;;;;;;3.00;2.80;;;;;;;20.82;51.77;95649.44;5044853;28;20181;-82
2022/09/12 10:29:44;;;;;;;2.85;2.65;;;;;;;20.76;52.54;95655.56;5059123;28;20189;-82
2022/09/12 10:32:11;;;;;;;3.50;2.97;;;;;;;20.80;51.55;95648.03;5059001;28;20539;-82
2022/09/12 10:34:44;;;;;;;3.38;3.08;;;;;;;20.95;50.96;95635.41;5053126;28;20202;-82
2022/09/12 10:37:17;;;;;;;2.97;2.67;;;;;;;21.00;51.78;95643.47;5069060;28;20264;-82
2022/09/12 10:39:52;;;;;;;3.50;2.80;;;;;;;21.08;50.67;95635.31;5044791;28;20178;-82
2022/09/12 10:42:51;;;;;;;2.95;2.75;;;;;;;21.06;50.73;95639.22;5060191;28;20651;-82
2022/09/12 10:45:23;;;;;;;2.90;2.70;;;;;;;21.13;50.93;95642.63;5048229;28;20209;-81
2022/09/12 10:47:49;;;;;;;2.65;2.45;;;;;;;21.07;51.54;95639.00;5052241;28;20206;-82
2022/09/12 10:50:25;;;;;;;2.35;2.17;;;;;;;21.15;48.67;95636.09;5040125;28;20217;-81
2022/09/12 10:52:50;;;;;;;2.90;2.70;;;;;;;21.23;48.73;95624.50;5042817;28;20190;-82
2022/09/12 10:55:15;;;;;;;2.80;2.50;;;;;;;21.30;50.25;95627.13;5046592;28;20618;-82
2022/09/12 10:57:53;;;;;;;3.08;2.20;;;;;;;21.29;48.64;95625.50;5046507;28;20190;-82
2022/09/12 11:00:26;;;;;;;2.22;2.03;;;;;;;21.24;48.28;95622.66;5029702;28;20186;-82
2022/09/12 11:03:05;;;;;;;2.50;2.30;;;;;;;21.21;47.26;95626.53;5043810;28;20713;-82
2022/09/12 11:05:58;;;;;;;2.58;2.38;;;;;;;21.39;49.38;95615.28;5042453;28;20217;-82
2022/09/12 11:08:46;;;;;;;3.72;2.05;;;;;;;21.40;44.96;95622.19;5054018;28;20194;-83
2022/09/12 11:11:37;;;;;;;2.72;2.28;;;;;;;21.31;47.29;95607.63;5035077;28;20189;-83
2022/09/12 11:14:40;;;;;;;2.17;2.08;;;;;;;21.20;47.78;95604.59;5054858;28;20691;-83
2022/09/12 11:17:18;;;;;;;2.40;2.08;;;;;;;21.48;46.02;95603.44;5048527;28;20206;-83
2022/09/12 11:19:49;;;;;;;2.22;2.03;;;;;;;21.52;45.24;95601.16;5041820;28;20186;-83
2022/09/12 11:22:21;;;;;;;3.05;2.00;;;;;;;21.59;44.62;95605.38;5046760;28;20186;-82
2022/09/12 11:25:11;;;;;;;1.85;1.70;;;;;;;21.71;45.16;95608.94;5045832;28;20528;-83
2022/09/12 11:27:44;;;;;;;2.20;1.80;;;;;;;21.56;44.90;95600.53;5063782;28;20181;-82
2022/09/12 11:30:11;;;;;;;3.00;1.65;;;;;;;21.75;44.34;95596.13;5038684;28;20228;-83
2022/09/12 11:32:40;;;;;;;1.63;1.52;;;;;;;21.49;43.85;95600.59;5042056;28;20182;-83
2022/09/12 11:35:14;;;;;;;1.73;1.60;;;;;;;21.73;44.83;95606.91;5057152;28;20232;-82
2022/09/12 11:38:24;;;;;;;3.47;3.17;;;;;;;21.78;43.00;95601.78;5052862;28;20978;-82
2022/09/12 11:40:53;;;;;;;3.10;2.38;;;;;;;21.86;41.70;95603.34;5051901;28;20182;-82
2022/09/12 11:43:36;;;;;;;3.47;2.42;;;;;;;21.94;42.23;95603.06;5050312;28;20186;-83
2022/09/12 11:46:17;;;;;;;1.45;1.35;;;;;;;22.03;41.71;95593.84;5047062;28;20235;-83
2022/09/12 11:49:14;;;;;;;1.73;1.63;;;;;;;22.08;42.56;95590.56;5046452;28;20285;-82
2022/09/12 11:51:49;;;;;;;1.67;1.55;;;;;;;22.22;43.54;95583.31;5052098;28;20539;-83
2022/09/12 11:54:52;;;;;;;1.27;1.20;;;;;;;22.33;40.93;95601.09;5036098;28;20196;-82
2022/09/12 11:57:30;;;;;;;1.45;1.35;;;;;;;21.95;40.92;95590.66;5036106;28;20255;-87
2022/09/12 12:00:07;;;;;;;2.53;1.20;;;;;;;22.29;39.75;95590.16;5036309;28;20185;-81